»·PEaware :: SWA666 KBOI-KHLN

SWA666 :: KBOI-KHLN

FLIGHT INFORMATION

Flight Status: Arrived
Operator:
Southwest Airlines
More flights by this operator :: More flights under this callsign
Pilot: Nehseem A. (13724)
Aircraft: BOEING 737-800
(B738)
More flights by this aircraft type
Origin: KBOI Boise Air Terminal/Gowen
United States
Destination: KHLN Helena Regl
United States
More flights between these airports :: More routes between these airports
Route: +BOI3 DEETZ LKT HLN
File this flight plan on PilotEdge
Remarks:
Altitude:
(Current/Filed)
27,000ft
Speed:
(Current/Filed)
478kts
Departed: 13-May-18 11:19 AM
Arrived: 13-May-18 12:39 PM
Distance/Time
Traveled:
256nm/1:20
Distance/Time
To Go:
Arrived

Flight Plot

Page will automatically refresh every two minutes.

Flight plan parsing failed; only flown route is shown


Map Options




Map Legend


Flown Route
Filed Route
Departure Airport
Arrival Airport
Navaid (VOR, NDB)
Fix

Horizontal Profiles

Position Reports

Time Latitude Longitude Heading Altitude Ground
Speed
13-May-18 10:44 43.567327 -116.218221 256 2879ft 0kts
13-May-18 10:45 43.567327 -116.218221 256 2879ft 0kts
13-May-18 10:46 43.567327 -116.218221 256 2879ft 0kts
13-May-18 10:47 43.567327 -116.218221 256 2879ft 0kts
13-May-18 10:48 43.567327 -116.218221 256 2879ft 0kts
13-May-18 10:49 43.567327 -116.218221 256 2879ft 0kts
13-May-18 10:50 43.567327 -116.218221 256 2879ft 0kts
13-May-18 10:51 43.567327 -116.218221 256 2879ft 0kts
13-May-18 10:52 43.567327 -116.218221 256 2879ft 0kts
13-May-18 10:53 43.567327 -116.218221 256 2879ft 0kts
13-May-18 10:54 43.567327 -116.218221 256 2879ft 0kts
13-May-18 10:55 43.567327 -116.218221 256 2879ft 0kts
13-May-18 10:56 43.567327 -116.218221 256 2879ft 0kts
13-May-18 10:57 43.567327 -116.218221 256 2879ft 0kts
13-May-18 10:58 43.567327 -116.218221 256 2879ft 0kts
13-May-18 10:59 43.567327 -116.218221 256 2879ft 0kts
13-May-18 11:00 43.567327 -116.218221 256 2879ft 0kts
13-May-18 11:01 43.567327 -116.218221 256 2879ft 0kts
13-May-18 11:02 43.567327 -116.218221 256 2879ft 0kts
13-May-18 11:03 43.567327 -116.218221 256 2879ft 0kts
13-May-18 11:04 43.567327 -116.218221 256 2879ft 0kts
13-May-18 11:05 43.567327 -116.218221 256 2879ft 0kts
13-May-18 11:06 43.567327 -116.218221 256 2879ft 0kts
13-May-18 11:07 43.567327 -116.218221 256 2879ft 0kts
13-May-18 11:08 43.567463 -116.217765 231 2879ft 2kts
13-May-18 11:09 43.567572 -116.217615 217 2879ft 0kts
13-May-18 11:10 43.567572 -116.217615 217 2879ft 0kts
13-May-18 11:11 43.567572 -116.217615 217 2879ft 0kts
13-May-18 11:12 43.567571 -116.217615 217 2879ft 0kts
13-May-18 11:13 43.566368 -116.217185 144 2879ft 9kts
13-May-18 11:14 43.564990 -116.216312 180 2879ft 5kts
13-May-18 11:15 43.562944 -116.211774 116 2879ft 22kts
13-May-18 11:16 43.560343 -116.204095 114 2879ft 21kts
13-May-18 11:17 43.559537 -116.202668 197 2879ft 0kts
13-May-18 11:18 43.558829 -116.203422 264 2879ft 7kts
13-May-18 11:19 43.567149 -116.227828 293 2893ft 162kts
13-May-18 11:20 43.585949 -116.293903 291 5300ft 210kts
13-May-18 11:21 43.610826 -116.378565 292 7791ft 259kts
13-May-18 11:22 43.639436 -116.471600 295 11064ft 273kts
13-May-18 11:23 43.699802 -116.537925 2 13345ft 307kts
13-May-18 11:24 43.775770 -116.482870 34 16169ft 323kts
13-May-18 11:25 43.851882 -116.412359 34 18999ft 333kts
13-May-18 11:26 43.929377 -116.340239 34 21759ft 337kts
13-May-18 11:27 44.007675 -116.267762 33 24211ft 340kts
13-May-18 11:28 44.086952 -116.193570 33 26426ft 343kts
13-May-18 11:29 44.168128 -116.117203 33 27093ft 370kts
13-May-18 11:30 44.237936 -116.006447 55 27103ft 395kts
13-May-18 11:31 44.295904 -115.869379 57 27105ft 421kts
13-May-18 11:32 44.354460 -115.728099 58 27106ft 420kts
13-May-18 11:33 44.412493 -115.586439 58 27108ft 421kts
13-May-18 11:34 44.460937 -115.467356 58 27110ft 421kts
13-May-18 11:35 44.518667 -115.324924 58 27112ft 422kts
13-May-18 11:36 44.576439 -115.182077 58 27112ft 422kts
13-May-18 11:37 44.634388 -115.038691 58 27113ft 421kts
13-May-18 11:38 44.692200 -114.895670 58 27118ft 421kts
13-May-18 11:39 44.750132 -114.752410 58 27123ft 421kts
13-May-18 11:40 44.808273 -114.608779 58 27124ft 422kts
13-May-18 11:41 44.866437 -114.465282 58 27126ft 422kts
13-May-18 11:42 44.924548 -114.322124 58 27125ft 421kts
13-May-18 11:43 44.992489 -114.155039 58 27127ft 420kts
13-May-18 11:44 45.041007 -114.036460 56 27127ft 418kts
13-May-18 11:45 45.122076 -113.918738 44 27130ft 417kts
13-May-18 11:46 45.206431 -113.806367 43 27130ft 416kts
13-May-18 11:47 45.291118 -113.694131 43 27132ft 416kts
13-May-18 11:48 45.375767 -113.582325 43 27136ft 416kts
13-May-18 11:49 45.460620 -113.470475 43 27141ft 417kts
13-May-18 11:50 45.546092 -113.357921 43 27147ft 418kts
13-May-18 11:51 45.631506 -113.245466 43 27153ft 419kts
13-May-18 11:52 45.717766 -113.131861 43 26739ft 423kts
13-May-18 11:53 45.803031 -113.019485 44 24566ft 404kts
13-May-18 11:54 45.883435 -112.913383 45 22567ft 384kts
13-May-18 11:55 45.960847 -112.811093 45 20558ft 370kts
13-May-18 11:56 46.034263 -112.713961 44 18117ft 349kts
13-May-18 11:57 46.104395 -112.621098 44 15618ft 337kts
13-May-18 11:58 46.172669 -112.530552 43 13291ft 324kts
13-May-18 11:59 46.234183 -112.448983 43 12836ft 289kts
13-May-18 12:00 46.294390 -112.369085 43 11949ft 298kts
13-May-18 12:01 46.357218 -112.294866 43 11529ft 274kts
13-May-18 12:02 46.374221 -112.201283 104 11644ft 243kts
13-May-18 12:03 46.343793 -112.115271 126 11681ft 234kts
13-May-18 12:04 46.293265 -112.059697 148 11718ft 229kts
13-May-18 12:05 46.250570 -111.996651 106 11639ft 234kts
13-May-18 12:06 46.248204 -111.900280 69 11596ft 246kts
13-May-18 12:07 46.287318 -111.822883 41 11829ft 231kts
13-May-18 12:08 46.330785 -111.754200 55 11733ft 232kts
13-May-18 12:09 46.358824 -111.669729 69 11723ft 230kts
13-May-18 12:10 46.393702 -111.594025 37 11644ft 232kts
13-May-18 12:11 46.451448 -111.551499 30 11564ft 234kts
13-May-18 12:12 46.509576 -111.506475 21 11536ft 228kts
13-May-18 12:13 46.560269 -111.538841 297 11372ft 211kts
13-May-18 12:14 46.554978 -111.621539 258 11087ft 210kts
13-May-18 12:15 46.559275 -111.703618 288 10600ft 206kts
13-May-18 12:16 46.575329 -111.783589 279 11209ft 203kts
13-May-18 12:17 46.561347 -111.867754 251 11790ft 225kts
13-May-18 12:18 46.542434 -111.957335 253 12071ft 240kts
13-May-18 12:19 46.521626 -112.055050 244 11992ft 259kts
13-May-18 12:20 46.462923 -112.101665 176 11960ft 249kts
13-May-18 12:21 46.395540 -112.095736 171 12008ft 236kts
13-May-18 12:22 46.332799 -112.079269 168 12098ft 224kts
13-May-18 12:23 46.274748 -112.053728 131 12173ft 217kts
13-May-18 12:24 46.265424 -111.974250 94 12041ft 202kts
13-May-18 12:25 46.268439 -111.895257 79 11935ft 191kts
13-May-18 12:26 46.281348 -111.817708 69 11997ft 208kts
13-May-18 12:27 46.304493 -111.740170 49 12077ft 211kts
13-May-18 12:28 46.341473 -111.673568 54 12072ft 211kts
13-May-18 12:29 46.384997 -111.617378 36 11976ft 216kts
13-May-18 12:30 46.431311 -111.563718 30 12049ft 213kts
13-May-18 12:31 46.484971 -111.526199 19 11724ft 219kts
13-May-18 12:32 46.541072 -111.533760 307 10811ft 220kts
13-May-18 12:33 46.551510 -111.621307 275 9519ft 220kts
13-May-18 12:34 46.558504 -111.709878 283 7687ft 215kts
13-May-18 12:35 46.571932 -111.785605 289 6591ft 171kts
13-May-18 12:36 46.584655 -111.848321 284 5596ft 160kts
13-May-18 12:37 46.594745 -111.911889 283 4625ft 159kts
13-May-18 12:38 46.604601 -111.973136 282 3885ft 143kts
13-May-18 12:39 46.608709 -111.991750 348 3885ft 7kts
13-May-18 12:40 46.609614 -111.991786 72 3885ft 1kts

Navigation Log

Ident Type
Flight plan parsing failed, navigation log unavailable